createdAt,value
2022-09-24T00:00:01.273Z,25.00
2022-09-24T00:02:30.274Z,25.10
2022-09-24T00:04:59.243Z,25.10
2022-09-24T00:07:28.202Z,25.10
2022-09-24T00:09:57.148Z,25.10
2022-09-24T00:12:26.998Z,25.20
2022-09-24T00:14:55.932Z,25.20
2022-09-24T00:17:24.778Z,25.20
2022-09-24T00:19:53.693Z,25.30
2022-09-24T00:22:22.628Z,25.30
2022-09-24T00:25:09.848Z,25.30
2022-09-24T00:27:38.709Z,25.30
2022-09-24T00:30:08.084Z,25.40
2022-09-24T00:32:37.001Z,25.40
2022-09-24T00:35:06.156Z,25.40
2022-09-24T00:37:35.013Z,25.40
2022-09-24T00:40:04.191Z,25.50
2022-09-24T00:42:33.756Z,25.50
2022-09-24T00:45:05.724Z,25.50
2022-09-24T00:47:45.959Z,25.50
2022-09-24T00:50:17.367Z,25.50
2022-09-24T00:53:11.532Z,25.50
2022-09-24T00:55:45.300Z,25.60
2022-09-24T00:58:15.595Z,25.50
2022-09-24T01:00:45.893Z,25.50
2022-09-24T01:03:20.728Z,25.50
2022-09-24T01:05:49.704Z,25.50
2022-09-24T01:08:20.690Z,25.50
2022-09-24T01:11:19.131Z,25.50
2022-09-24T01:14:00.515Z,25.60
2022-09-24T01:17:03.012Z,25.60
2022-09-24T01:19:59.670Z,25.60
2022-09-24T01:23:06.031Z,25.70
2022-09-24T01:25:59.541Z,25.80
2022-09-24T01:29:06.730Z,25.80
2022-09-24T01:31:45.599Z,25.90
2022-09-24T01:34:20.823Z,26.00
2022-09-24T01:36:51.187Z,26.00
2022-09-24T01:39:22.156Z,26.10
2022-09-24T01:41:53.166Z,26.10
2022-09-24T01:44:22.563Z,26.10
2022-09-24T01:46:51.619Z,26.20
2022-09-24T01:49:20.582Z,26.30
2022-09-24T01:51:53.767Z,26.30
2022-09-24T01:54:34.155Z,26.30
2022-09-24T01:57:26.389Z,26.40
2022-09-24T02:00:01.224Z,26.40
2022-09-24T02:02:56.137Z,26.50
2022-09-24T02:05:46.483Z,26.50
2022-09-24T02:08:26.159Z,26.50
2022-09-24T02:11:17.156Z,26.50
2022-09-24T02:13:52.356Z,26.50
2022-09-24T02:16:25.933Z,26.60
2022-09-24T02:18:58.698Z,26.60
2022-09-24T02:21:28.691Z,26.60
2022-09-24T02:24:06.792Z,26.60
2022-09-24T02:26:35.856Z,26.70
2022-09-24T02:29:05.058Z,26.70
2022-09-24T02:31:48.729Z,26.80
2022-09-24T02:34:32.966Z,26.80
2022-09-24T02:37:06.499Z,26.80
2022-09-24T02:39:36.106Z,26.80
2022-09-24T02:42:07.233Z,26.90
2022-09-24T02:44:40.380Z,26.90
2022-09-24T02:47:09.774Z,26.90
2022-09-24T02:49:38.726Z,26.90
2022-09-24T02:52:07.873Z,27.00
2022-09-24T02:54:36.763Z,27.00
2022-09-24T02:57:05.708Z,27.10
2022-09-24T02:59:34.596Z,27.20
2022-09-24T03:02:03.640Z,27.20
2022-09-24T03:04:33.023Z,27.20
2022-09-24T03:07:02.064Z,27.20
2022-09-24T03:09:31.401Z,27.30
2022-09-24T03:12:02.034Z,27.30
2022-09-24T03:14:31.031Z,27.30
2022-09-24T03:16:59.880Z,27.40
2022-09-24T03:19:28.711Z,27.50
2022-09-24T03:21:57.812Z,27.50
2022-09-24T03:24:26.685Z,27.60
2022-09-24T03:26:55.556Z,27.70
2022-09-24T03:29:44.202Z,27.70
2022-09-24T03:32:13.125Z,27.80
2022-09-24T03:34:42.032Z,27.80
2022-09-24T03:37:10.965Z,27.80
2022-09-24T03:39:39.887Z,27.80
2022-09-24T03:42:08.850Z,27.80
2022-09-24T03:44:37.693Z,27.90
2022-09-24T03:47:06.661Z,28.00
2022-09-24T03:49:35.499Z,28.10
2022-09-24T03:52:04.430Z,28.20
2022-09-24T03:54:33.631Z,28.30
2022-09-24T03:57:02.569Z,28.40
2022-09-24T03:59:31.537Z,28.40
2022-09-24T04:02:00.499Z,28.50
2022-09-24T04:04:29.430Z,28.60
2022-09-24T04:06:58.581Z,28.70
2022-09-24T04:09:27.866Z,28.80
2022-09-24T04:11:57.403Z,28.80
2022-09-24T04:14:26.325Z,28.90
2022-09-24T04:16:55.288Z,28.90
2022-09-24T04:19:24.161Z,28.90
2022-09-24T04:21:53.046Z,28.90
2022-09-24T04:24:22.356Z,28.90
2022-09-24T04:26:51.665Z,28.90
2022-09-24T04:29:20.556Z,28.90
2022-09-24T04:31:49.426Z,28.80
2022-09-24T04:34:19.139Z,28.70
2022-09-24T04:36:48.108Z,28.70
2022-09-24T04:39:17.111Z,28.70
2022-09-24T04:41:48.269Z,28.70
2022-09-24T04:44:17.273Z,28.70
2022-09-24T04:46:46.284Z,28.80
2022-09-24T04:49:15.415Z,28.80
2022-09-24T04:51:44.406Z,28.80
2022-09-24T04:54:13.380Z,28.80
2022-09-24T04:56:42.254Z,28.80
2022-09-24T04:59:11.195Z,28.80
2022-09-24T05:01:40.144Z,28.80
2022-09-24T05:04:09.756Z,28.90
2022-09-24T05:06:38.631Z,28.90
2022-09-24T05:09:12.303Z,29.10
2022-09-24T05:11:41.625Z,29.20
2022-09-24T05:14:10.473Z,29.20
2022-09-24T05:16:39.467Z,29.30
2022-09-24T05:19:08.545Z,29.30
2022-09-24T05:21:37.476Z,29.50
2022-09-24T05:24:06.462Z,29.60
2022-09-24T05:26:53.963Z,29.70
2022-09-24T05:29:22.855Z,29.70
2022-09-24T05:31:51.827Z,29.70
2022-09-24T05:34:20.839Z,29.60
2022-09-24T05:36:49.724Z,29.40
2022-09-24T05:39:18.568Z,29.30
2022-09-24T05:41:47.471Z,29.10
2022-09-24T05:44:16.387Z,29.00
2022-09-24T05:46:45.655Z,28.90
2022-09-24T05:49:14.549Z,28.90
2022-09-24T05:51:43.730Z,28.90
2022-09-24T05:54:13.303Z,28.90
2022-09-24T05:56:42.151Z,28.80
2022-09-24T05:59:11.853Z,28.80
2022-09-24T06:01:41.055Z,28.80
2022-09-24T06:04:12.433Z,28.80
2022-09-24T06:06:41.488Z,28.80
2022-09-24T06:09:11.279Z,28.80
2022-09-24T06:11:41.125Z,28.80
2022-09-24T06:14:10.904Z,28.90
2022-09-24T06:16:39.818Z,28.90
2022-09-24T06:19:08.897Z,29.00
2022-09-24T06:21:37.863Z,29.00
2022-09-24T06:24:06.899Z,29.10
2022-09-24T06:26:35.823Z,29.10
2022-09-24T06:29:08.320Z,29.20
2022-09-24T06:31:37.389Z,29.30
2022-09-24T06:34:06.397Z,29.30
2022-09-24T06:36:35.995Z,29.30
2022-09-24T06:39:05.023Z,29.30
2022-09-24T06:41:33.941Z,29.30
2022-09-24T06:44:03.060Z,29.30
2022-09-24T06:46:32.198Z,29.40
2022-09-24T06:49:01.139Z,29.50
2022-09-24T06:51:30.075Z,29.50
2022-09-24T06:53:59.017Z,29.60
2022-09-24T06:56:27.978Z,29.60
2022-09-24T06:58:56.980Z,29.60
2022-09-24T07:01:26.024Z,29.60
2022-09-24T07:03:55.020Z,29.50
2022-09-24T07:06:24.039Z,29.50
2022-09-24T07:08:53.861Z,29.50
2022-09-24T07:11:22.767Z,29.50
2022-09-24T07:13:53.332Z,29.50
2022-09-24T07:16:22.336Z,29.50
2022-09-24T07:18:51.262Z,29.50
2022-09-24T07:21:20.222Z,29.50
2022-09-24T07:23:49.136Z,29.40
2022-09-24T07:26:18.062Z,29.40
2022-09-24T07:28:46.976Z,29.50
2022-09-24T07:31:16.016Z,29.60
2022-09-24T07:33:44.936Z,29.70
2022-09-24T07:36:13.794Z,29.80
2022-09-24T07:38:43.860Z,29.90
2022-09-24T07:41:13.047Z,29.90
2022-09-24T07:43:41.955Z,29.90
2022-09-24T07:46:10.890Z,29.90
2022-09-24T07:48:39.893Z,29.90
2022-09-24T07:51:12.432Z,30.00
2022-09-24T07:53:41.307Z,30.00
2022-09-24T07:56:10.219Z,29.90
2022-09-24T07:58:39.188Z,29.90
2022-09-24T08:01:08.272Z,29.90
2022-09-24T08:03:37.760Z,30.00
2022-09-24T08:06:07.212Z,30.00
2022-09-24T08:08:36.449Z,30.10
2022-09-24T08:11:07.098Z,30.10
2022-09-24T08:13:36.425Z,30.20
2022-09-24T08:16:06.036Z,30.20
2022-09-24T08:18:35.356Z,30.30
2022-09-24T08:21:10.586Z,30.30
2022-09-24T08:23:41.128Z,30.30
2022-09-24T08:26:10.947Z,30.20
2022-09-24T08:28:43.148Z,30.20
2022-09-24T08:31:14.624Z,30.10
2022-09-24T08:33:44.862Z,30.10
2022-09-24T08:36:13.744Z,30.00
2022-09-24T08:38:42.636Z,29.90
2022-09-24T08:41:14.287Z,29.70
2022-09-24T08:44:01.777Z,29.40
2022-09-24T08:46:54.690Z,29.00
2022-09-24T08:49:49.494Z,28.50
2022-09-24T08:52:27.594Z,28.10
2022-09-24T08:54:58.208Z,27.80
2022-09-24T08:57:29.088Z,27.50
2022-09-24T08:59:58.021Z,27.30
2022-09-24T09:02:43.728Z,27.20
2022-09-24T09:05:20.226Z,27.10
2022-09-24T09:07:55.148Z,27.00
2022-09-24T09:10:40.859Z,26.90
2022-09-24T09:13:12.559Z,26.80
2022-09-24T09:15:49.844Z,26.80
2022-09-24T09:18:40.707Z,26.80
2022-09-24T09:21:44.032Z,26.80
2022-09-24T09:24:25.427Z,26.80
2022-09-24T09:26:57.572Z,26.80
2022-09-24T09:29:29.140Z,26.80
2022-09-24T09:32:18.225Z,26.80
2022-09-24T09:35:19.967Z,26.80
2022-09-24T09:37:53.653Z,26.80
2022-09-24T09:40:30.696Z,26.90
2022-09-24T09:43:19.695Z,27.00
2022-09-24T09:46:08.693Z,27.00
2022-09-24T09:48:55.468Z,27.00
2022-09-24T09:51:27.886Z,27.10
2022-09-24T09:54:02.326Z,27.10
2022-09-24T09:56:35.442Z,27.20
2022-09-24T09:59:13.189Z,27.20
2022-09-24T10:01:44.527Z,27.20
2022-09-24T10:04:44.525Z,27.20
2022-09-24T10:07:18.378Z,27.20
2022-09-24T10:09:47.863Z,27.20
2022-09-24T10:12:25.463Z,27.20
2022-09-24T10:15:05.559Z,27.20
2022-09-24T10:17:39.642Z,27.20
2022-09-24T10:20:19.629Z,27.20
2022-09-24T10:23:00.035Z,27.20
2022-09-24T10:25:30.954Z,27.20
2022-09-24T10:28:21.569Z,27.20
2022-09-24T10:31:00.577Z,27.20
2022-09-24T10:33:37.523Z,27.20
2022-09-24T10:36:36.320Z,27.20
2022-09-24T10:39:15.679Z,27.20
2022-09-24T10:41:55.822Z,27.20
2022-09-24T10:44:26.379Z,27.20
2022-09-24T10:47:20.520Z,27.20
2022-09-24T10:50:34.145Z,27.20
2022-09-24T10:53:10.085Z,27.20
2022-09-24T10:55:51.047Z,27.10
2022-09-24T10:58:23.922Z,27.10
2022-09-24T11:01:20.697Z,27.10
2022-09-24T11:04:35.116Z,27.10
2022-09-24T11:07:27.036Z,27.10
2022-09-24T11:10:38.152Z,27.00
2022-09-24T11:13:24.657Z,27.00
2022-09-24T11:15:59.911Z,27.00
2022-09-24T11:18:41.082Z,27.00
2022-09-24T11:21:18.315Z,27.00
2022-09-24T11:24:05.402Z,27.00
2022-09-24T11:27:11.066Z,27.00
2022-09-24T11:30:01.058Z,27.00
2022-09-24T11:32:39.201Z,27.00
2022-09-24T11:35:30.055Z,27.00
2022-09-24T11:38:08.884Z,27.00
2022-09-24T11:40:56.898Z,27.00
2022-09-24T11:43:34.981Z,27.00
2022-09-24T11:46:25.290Z,26.90
2022-09-24T11:48:57.332Z,26.90
2022-09-24T11:51:44.960Z,26.90
2022-09-24T11:54:23.052Z,26.90
2022-09-24T11:56:58.814Z,26.90
2022-09-24T11:59:27.887Z,26.90
2022-09-24T12:02:11.963Z,26.80
2022-09-24T12:04:48.350Z,26.60
2022-09-24T12:07:35.989Z,26.40
2022-09-24T12:10:30.945Z,26.20
2022-09-24T12:13:13.801Z,26.10
2022-09-24T12:15:54.164Z,25.90
2022-09-24T12:18:30.614Z,25.80
2022-09-24T12:21:07.876Z,25.60
2022-09-24T12:23:43.007Z,25.60
2022-09-24T12:26:17.481Z,25.50
2022-09-24T12:29:27.489Z,25.50
2022-09-24T12:32:33.913Z,25.40
2022-09-24T12:35:19.989Z,25.30
2022-09-24T12:37:52.901Z,25.30
2022-09-24T12:40:40.605Z,25.20
2022-09-24T12:43:27.296Z,25.10
2022-09-24T12:46:03.074Z,25.00
2022-09-24T12:48:37.517Z,25.00
2022-09-24T12:51:12.782Z,24.90
2022-09-24T12:53:44.468Z,24.80
2022-09-24T12:56:13.802Z,24.80
2022-09-24T12:58:44.893Z,24.70
2022-09-24T13:01:26.109Z,24.70
2022-09-24T13:04:16.372Z,24.60
2022-09-24T13:06:49.284Z,24.60
2022-09-24T13:09:40.975Z,24.60
2022-09-24T13:12:19.300Z,24.50
2022-09-24T13:15:09.576Z,24.50
2022-09-24T13:17:41.948Z,24.50
2022-09-24T13:20:29.493Z,24.50
2022-09-24T13:23:14.731Z,24.40
2022-09-24T13:25:55.289Z,24.40
2022-09-24T13:28:38.192Z,24.40
2022-09-24T13:31:41.414Z,24.40
2022-09-24T13:34:15.821Z,24.40
2022-09-24T13:37:03.304Z,24.40
2022-09-24T13:39:54.515Z,24.30
2022-09-24T13:42:48.006Z,24.30
2022-09-24T13:45:23.618Z,24.40
2022-09-24T13:48:06.382Z,24.30
2022-09-24T13:50:41.643Z,24.40
2022-09-24T13:53:35.584Z,24.40
2022-09-24T13:56:14.454Z,24.30
2022-09-24T13:58:45.033Z,24.30
2022-09-24T14:01:16.109Z,24.30
2022-09-24T14:03:57.753Z,24.30
2022-09-24T14:06:51.876Z,24.30
2022-09-24T14:09:37.867Z,24.30
2022-09-24T14:12:18.244Z,24.20
2022-09-24T14:14:53.342Z,24.20
2022-09-24T14:17:22.396Z,24.20
2022-09-24T14:19:59.207Z,24.20
2022-09-24T14:22:33.145Z,24.30
2022-09-24T14:25:07.882Z,24.20
2022-09-24T14:27:41.241Z,24.30
2022-09-24T14:30:20.019Z,24.30
2022-09-24T14:33:02.813Z,24.30
2022-09-24T14:35:35.899Z,24.30
2022-09-24T14:38:37.105Z,24.40
2022-09-24T14:41:20.697Z,24.40
2022-09-24T14:43:54.778Z,24.40
2022-09-24T14:46:34.583Z,24.40
2022-09-24T14:49:27.164Z,24.40
2022-09-24T14:52:01.138Z,24.40
2022-09-24T14:54:36.699Z,24.40
2022-09-24T14:57:21.488Z,24.40
2022-09-24T14:59:50.591Z,24.40
2022-09-24T15:02:32.135Z,24.40
2022-09-24T15:05:06.471Z,24.40
2022-09-24T15:07:36.418Z,24.40
2022-09-24T15:10:07.342Z,24.40
2022-09-24T15:12:38.630Z,24.40
2022-09-24T15:15:30.317Z,24.40
2022-09-24T15:17:59.309Z,24.40
2022-09-24T15:20:28.280Z,24.40
2022-09-24T15:22:57.664Z,24.40
2022-09-24T15:25:26.831Z,24.40
2022-09-24T15:27:55.950Z,24.40
2022-09-24T15:30:25.510Z,24.50
2022-09-24T15:32:54.425Z,24.50
2022-09-24T15:35:23.311Z,24.50
2022-09-24T15:37:52.602Z,24.50
2022-09-24T15:40:26.972Z,24.40
2022-09-24T15:42:55.856Z,24.50
2022-09-24T15:45:26.451Z,24.50
2022-09-24T15:47:55.648Z,24.50
2022-09-24T15:50:25.399Z,24.50
2022-09-24T15:53:01.440Z,24.50
2022-09-24T15:55:32.394Z,24.50
2022-09-24T15:58:03.015Z,24.50
2022-09-24T16:00:31.852Z,24.50
2022-09-24T16:03:02.887Z,24.60
2022-09-24T16:05:31.777Z,24.50
2022-09-24T16:08:00.650Z,24.60
2022-09-24T16:10:29.560Z,24.60
2022-09-24T16:12:58.390Z,24.50
2022-09-24T16:15:27.304Z,24.60
2022-09-24T16:17:56.173Z,24.60
2022-09-24T16:20:25.009Z,24.60
2022-09-24T16:22:53.842Z,24.60
2022-09-24T16:25:22.790Z,24.60
2022-09-24T16:27:52.695Z,24.60
2022-09-24T16:30:21.694Z,24.60
2022-09-24T16:32:50.576Z,24.50
2022-09-24T16:35:20.196Z,24.60
2022-09-24T16:37:49.010Z,24.60
2022-09-24T16:40:17.932Z,24.60
2022-09-24T16:42:46.871Z,24.60
2022-09-24T16:45:15.809Z,24.60
2022-09-24T16:47:44.667Z,24.60
2022-09-24T16:50:14.059Z,24.60
2022-09-24T16:52:45.848Z,24.60
2022-09-24T16:55:14.758Z,24.60
2022-09-24T16:57:43.668Z,24.60
2022-09-24T17:00:16.114Z,24.60
2022-09-24T17:02:45.005Z,24.60
2022-09-24T17:05:13.913Z,24.60
2022-09-24T17:07:42.841Z,24.60
2022-09-24T17:10:16.812Z,24.60
2022-09-24T17:12:50.064Z,24.60
2022-09-24T17:15:21.639Z,24.60
2022-09-24T17:17:51.887Z,24.60
2022-09-24T17:20:21.301Z,24.60
2022-09-24T17:22:51.317Z,24.60
2022-09-24T17:25:20.402Z,24.60
2022-09-24T17:27:49.313Z,24.60
2022-09-24T17:30:18.258Z,24.60
2022-09-24T17:32:47.115Z,24.60
2022-09-24T17:35:16.002Z,24.60
2022-09-24T17:37:46.264Z,24.60
2022-09-24T17:40:22.950Z,24.60
2022-09-24T17:42:53.803Z,24.60
2022-09-24T17:45:23.495Z,24.60
2022-09-24T17:47:58.443Z,24.60
2022-09-24T17:50:27.579Z,24.60
2022-09-24T17:52:56.516Z,24.60
2022-09-24T17:55:25.436Z,24.60
2022-09-24T17:57:54.369Z,24.60
2022-09-24T18:00:23.247Z,24.60
2022-09-24T18:02:55.037Z,24.60
2022-09-24T18:05:23.922Z,24.70
2022-09-24T18:07:52.809Z,24.60
2022-09-24T18:10:21.967Z,24.60
2022-09-24T18:12:50.796Z,24.60
2022-09-24T18:15:19.602Z,24.60
2022-09-24T18:17:48.577Z,24.60
2022-09-24T18:20:17.543Z,24.60
2022-09-24T18:22:46.645Z,24.60
2022-09-24T18:25:15.639Z,24.60
2022-09-24T18:27:46.392Z,24.60
2022-09-24T18:30:16.735Z,24.60
2022-09-24T18:32:48.588Z,24.60
2022-09-24T18:35:17.581Z,24.60
2022-09-24T18:37:46.490Z,24.60
2022-09-24T18:40:15.462Z,24.60
2022-09-24T18:42:44.343Z,24.60
2022-09-24T18:45:13.529Z,24.60
2022-09-24T18:47:42.426Z,24.60
2022-09-24T18:50:11.639Z,24.60
2022-09-24T18:52:40.500Z,24.60
2022-09-24T18:55:10.329Z,24.60
2022-09-24T18:57:39.515Z,24.60
2022-09-24T19:00:28.988Z,24.60
2022-09-24T19:02:58.804Z,24.60
2022-09-24T19:05:28.081Z,24.70
2022-09-24T19:07:56.913Z,24.60
2022-09-24T19:10:25.807Z,24.60
2022-09-24T19:12:56.305Z,24.60
2022-09-24T19:15:26.312Z,24.70
2022-09-24T19:17:55.332Z,24.70
2022-09-24T19:20:24.176Z,24.60
2022-09-24T19:23:01.005Z,24.60
2022-09-24T19:25:34.533Z,24.60
2022-09-24T19:28:05.315Z,24.60
2022-09-24T19:30:44.425Z,24.60
2022-09-24T19:33:17.104Z,24.60
2022-09-24T19:36:05.632Z,24.50
2022-09-24T19:38:37.558Z,24.60
2022-09-24T19:41:17.370Z,24.50
2022-09-24T19:43:46.599Z,24.50
2022-09-24T19:46:18.025Z,24.50
2022-09-24T19:48:49.438Z,24.50
2022-09-24T19:51:26.987Z,24.50
2022-09-24T19:54:01.284Z,24.50
2022-09-24T19:56:31.071Z,24.50
2022-09-24T19:59:02.009Z,24.50
2022-09-24T20:01:33.420Z,24.40
2022-09-24T20:04:06.229Z,24.40
2022-09-24T20:06:37.090Z,24.40
2022-09-24T20:09:06.645Z,24.40
2022-09-24T20:11:35.583Z,24.40
2022-09-24T20:14:06.817Z,24.40
2022-09-24T20:16:35.701Z,24.40
2022-09-24T20:19:05.821Z,24.40
2022-09-24T20:21:35.687Z,24.40
2022-09-24T20:24:06.836Z,24.40
2022-09-24T20:26:54.882Z,24.40
2022-09-24T20:29:24.200Z,24.40
2022-09-24T20:31:56.513Z,24.40
2022-09-24T20:34:34.489Z,24.40
2022-09-24T20:37:06.984Z,24.40
2022-09-24T20:39:36.205Z,24.40
2022-09-24T20:42:07.061Z,24.40
2022-09-24T20:44:36.109Z,24.40
2022-09-24T20:47:05.261Z,24.40
2022-09-24T20:49:35.884Z,24.40
2022-09-24T20:52:06.707Z,24.40
2022-09-24T20:54:35.605Z,24.40
2022-09-24T20:57:04.553Z,24.30
2022-09-24T20:59:33.377Z,24.30
2022-09-24T21:02:02.422Z,24.30
2022-09-24T21:04:31.378Z,24.30
2022-09-24T21:07:00.293Z,24.30
2022-09-24T21:09:30.147Z,24.30
2022-09-24T21:11:59.040Z,24.30
2022-09-24T21:14:30.009Z,24.30
2022-09-24T21:16:59.002Z,24.30
2022-09-24T21:19:27.879Z,24.30
2022-09-24T21:21:56.827Z,24.30
2022-09-24T21:24:31.165Z,24.30
2022-09-24T21:27:00.609Z,24.30
2022-09-24T21:29:29.507Z,24.30
2022-09-24T21:31:58.474Z,24.30
2022-09-24T21:34:29.350Z,24.30
2022-09-24T21:36:58.331Z,24.30
2022-09-24T21:39:30.063Z,24.30
2022-09-24T21:42:00.456Z,24.30
2022-09-24T21:44:33.211Z,24.30
2022-09-24T21:47:02.903Z,24.30
2022-09-24T21:49:34.665Z,24.30
2022-09-24T21:52:06.085Z,24.30
2022-09-24T21:54:35.162Z,24.30
2022-09-24T21:57:04.419Z,24.40
2022-09-24T21:59:51.403Z,24.30
2022-09-24T22:02:21.286Z,24.30
2022-09-24T22:04:50.321Z,24.30
2022-09-24T22:07:19.365Z,24.30
2022-09-24T22:09:48.198Z,24.30
2022-09-24T22:12:18.212Z,24.30
2022-09-24T22:14:47.057Z,24.30
2022-09-24T22:17:16.024Z,24.30
2022-09-24T22:19:44.885Z,24.30
2022-09-24T22:22:13.693Z,24.30
2022-09-24T22:24:42.662Z,24.20
2022-09-24T22:27:11.511Z,24.30
2022-09-24T22:29:40.418Z,24.30
2022-09-24T22:32:09.479Z,24.30
2022-09-24T22:34:56.769Z,24.30
2022-09-24T22:37:25.742Z,24.30
2022-09-24T22:39:54.627Z,24.30
2022-09-24T22:42:23.590Z,24.30
2022-09-24T22:44:53.100Z,24.20
2022-09-24T22:47:21.996Z,24.20
2022-09-24T22:49:50.928Z,24.20
2022-09-24T22:52:19.890Z,24.20
2022-09-24T22:54:48.844Z,24.20
2022-09-24T22:57:17.894Z,24.20
2022-09-24T22:59:46.828Z,24.20
2022-09-24T23:02:15.781Z,24.20
2022-09-24T23:04:44.717Z,24.20
2022-09-24T23:07:17.561Z,24.10
2022-09-24T23:09:46.517Z,24.20
2022-09-24T23:12:16.278Z,24.20
2022-09-24T23:14:45.359Z,24.10
2022-09-24T23:17:14.423Z,24.10
2022-09-24T23:19:53.210Z,24.10
2022-09-24T23:22:23.793Z,24.10
2022-09-24T23:24:52.842Z,24.00
2022-09-24T23:27:21.994Z,24.00
2022-09-24T23:29:50.903Z,24.00
2022-09-24T23:32:19.973Z,24.00
2022-09-24T23:34:48.936Z,24.00
2022-09-24T23:37:17.838Z,24.00
2022-09-24T23:39:46.747Z,24.00
2022-09-24T23:42:15.594Z,24.00
2022-09-24T23:44:46.455Z,24.00
2022-09-24T23:47:15.318Z,24.00
2022-09-24T23:49:44.282Z,24.10
2022-09-24T23:52:13.210Z,24.00
2022-09-24T23:54:42.108Z,24.10
2022-09-24T23:57:12.405Z,24.10
2022-09-24T23:59:41.334Z,24.10
